Time;durP1;ratioP1;P1;durP2;ratioP2;P2;SDS_P1;SDS_P2;PMS_P1;PMS_P2;Temp;Humidity;BMP_temperature;BMP_pressure;BME280_temperature;BME280_humidity;BME280_pressure;Samples;Min_cycle;Max_cycle;Signal;HPM_P1;HPM_P2
2022/04/12 00:01:35;;;;;;;5.82;1.67;;;7.60;68.80;;;;;;5057797;28;20378;-69
2022/04/12 00:04:04;;;;;;;6.07;2.22;;;7.60;68.90;;;;;;5066684;28;20041;-69
2022/04/12 00:06:37;;;;;;;6.28;1.95;;;7.60;68.90;;;;;;5067187;28;20041;-69
2022/04/12 00:09:05;;;;;;;3.55;1.70;;;7.60;69.00;;;;;;5068490;28;20056;-68
2022/04/12 00:11:32;;;;;;;3.50;1.75;;;7.50;69.10;;;;;;5068084;28;20068;-68
2022/04/12 00:13:59;;;;;;;4.75;1.88;;;7.50;69.20;;;;;;5063797;28;20139;-68
2022/04/12 00:16:27;;;;;;;4.32;1.77;;;7.50;69.20;;;;;;5064954;28;20052;-69
2022/04/12 00:19:02;;;;;;;4.25;1.80;;;7.40;69.30;;;;;;5066410;28;20148;-69
2022/04/12 00:21:34;;;;;;;4.28;1.90;;;7.40;69.20;;;;;;5068892;28;20091;-68
2022/04/12 00:24:02;;;;;;;4.68;2.05;;;7.40;69.30;;;;;;5067322;28;20117;-68
2022/04/12 00:26:29;;;;;;;2.97;1.70;;;7.40;69.20;;;;;;5068123;28;20048;-69
2022/04/12 00:28:56;;;;;;;5.05;2.22;;;7.40;69.30;;;;;;5067616;28;20059;-68
2022/04/12 00:31:24;;;;;;;3.83;2.03;;;7.40;69.20;;;;;;5068806;28;20040;-68
2022/04/12 00:33:52;;;;;;;5.93;2.05;;;7.40;69.10;;;;;;5067208;28;20049;-69
2022/04/12 00:36:19;;;;;;;6.30;2.08;;;7.40;69.00;;;;;;5063106;28;20562;-68
2022/04/12 00:38:46;;;;;;;4.32;1.80;;;7.40;69.20;;;;;;5069242;28;20486;-68
2022/04/12 00:41:15;;;;;;;3.72;1.80;;;7.40;69.30;;;;;;5067700;28;20054;-68
2022/04/12 00:43:44;;;;;;;4.60;2.22;;;7.40;69.40;;;;;;5068490;28;20085;-68
2022/04/12 00:46:11;;;;;;;4.53;1.90;;;7.40;69.20;;;;;;5067433;28;20032;-68
2022/04/12 00:48:38;;;;;;;4.72;1.95;;;7.40;69.20;;;;;;5071534;28;20072;-68
2022/04/12 00:51:06;;;;;;;5.60;2.45;;;7.40;69.20;;;;;;5072359;28;20064;-68
2022/04/12 00:53:34;;;;;;;3.72;1.70;;;7.40;69.30;;;;;;5070859;28;20040;-68
2022/04/12 00:56:01;;;;;;;4.63;1.70;;;7.40;69.30;;;;;;5066260;28;20040;-68
2022/04/12 00:58:29;;;;;;;4.18;1.88;;;7.40;69.30;;;;;;5069555;28;20071;-68
2022/04/12 01:00:56;;;;;;;4.28;1.88;;;7.30;69.40;;;;;;5063756;28;20051;-68
2022/04/12 01:03:23;;;;;;;4.18;2.05;;;7.30;69.50;;;;;;5067449;28;20120;-69
2022/04/12 01:05:49;;;;;;;4.47;1.90;;;7.30;69.40;;;;;;5071417;28;20490;-68
2022/04/12 01:08:19;;;;;;;6.88;2.83;;;7.20;69.60;;;;;;5071229;28;20029;-69
2022/04/12 01:10:46;;;;;;;4.70;1.80;;;7.20;69.60;;;;;;5072419;28;20058;-69
2022/04/12 01:13:13;;;;;;;5.20;2.20;;;7.30;69.60;;;;;;5072540;28;20637;-69
2022/04/12 01:15:42;;;;;;;4.38;1.65;;;7.20;69.70;;;;;;5070401;28;20040;-69
2022/04/12 01:18:10;;;;;;;4.35;1.75;;;7.20;69.90;;;;;;5071047;28;20044;-68
2022/04/12 01:20:37;;;;;;;4.35;1.80;;;7.10;70.10;;;;;;5071110;28;20056;-69
2022/04/12 01:23:09;;;;;;;4.43;1.77;;;7.20;70.00;;;;;;5070150;28;20037;-68
2022/04/12 01:25:38;;;;;;;4.68;1.70;;;7.10;70.20;;;;;;5070077;28;20049;-68
2022/04/12 01:28:05;;;;;;;4.53;1.35;;;7.10;70.30;;;;;;5070627;28;20076;-69
2022/04/12 01:30:32;;;;;;;3.42;1.90;;;7.00;70.40;;;;;;5070603;28;20098;-68
2022/04/12 01:32:59;;;;;;;4.13;2.03;;;7.10;70.30;;;;;;5062970;28;20041;-68
2022/04/12 01:35:26;;;;;;;4.88;1.80;;;7.00;70.30;;;;;;5063245;28;20983;-68
2022/04/12 01:37:53;;;;;;;2.88;1.35;;;7.00;70.30;;;;;;5068124;28;20080;-68
2022/04/12 01:40:20;;;;;;;5.65;1.48;;;7.00;70.20;;;;;;5063239;28;20048;-68
2022/04/12 01:42:50;;;;;;;3.30;1.55;;;7.10;70.10;;;;;;5064471;28;21408;-68
2022/04/12 01:45:17;;;;;;;3.05;1.45;;;7.00;70.30;;;;;;5066594;28;20046;-68
2022/04/12 01:47:44;;;;;;;4.20;2.00;;;7.00;70.30;;;;;;5068744;28;20172;-68
2022/04/12 01:50:11;;;;;;;3.90;1.17;;;7.00;70.30;;;;;;5066871;28;20105;-69
2022/04/12 01:52:38;;;;;;;3.88;1.40;;;7.00;70.10;;;;;;5068767;28;20045;-68
2022/04/12 01:55:06;;;;;;;4.70;1.63;;;7.00;70.10;;;;;;5050283;28;20370;-67
2022/04/12 01:57:33;;;;;;;3.78;1.50;;;7.00;70.40;;;;;;5049627;28;20082;-68
2022/04/12 02:00:02;;;;;;;3.28;1.73;;;7.00;70.30;;;;;;5065830;28;20048;-69
2022/04/12 02:02:39;;;;;;;4.30;1.20;;;7.00;70.20;;;;;;5069293;28;20120;-68
2022/04/12 02:05:06;;;;;;;4.30;1.75;;;7.00;70.10;;;;;;5068217;28;20044;-70
2022/04/12 02:07:33;;;;;;;5.25;1.38;;;6.90;70.10;;;;;;5055558;28;20490;-67
2022/04/12 02:10:00;;;;;;;4.88;2.15;;;7.00;70.30;;;;;;5065123;28;20051;-68
2022/04/12 02:12:27;;;;;;;4.03;1.70;;;6.90;70.40;;;;;;5068147;28;20079;-67
2022/04/12 02:14:55;;;;;;;3.13;1.75;;;6.90;70.50;;;;;;5069927;28;20052;-68
2022/04/12 02:17:23;;;;;;;4.47;1.70;;;6.90;70.50;;;;;;5060389;28;20040;-69
2022/04/12 02:19:50;;;;;;;3.63;1.55;;;6.90;70.50;;;;;;5060003;28;20470;-69
2022/04/12 02:22:17;;;;;;;4.28;1.30;;;6.90;70.60;;;;;;5060854;28;20072;-69
2022/04/12 02:24:44;;;;;;;3.50;1.58;;;6.90;70.50;;;;;;5061040;28;20052;-68
2022/04/12 02:27:11;;;;;;;4.18;1.70;;;6.90;70.50;;;;;;5062817;28;20509;-68
2022/04/12 02:29:38;;;;;;;4.75;1.50;;;6.90;70.50;;;;;;5061463;28;20780;-68
2022/04/12 02:32:06;;;;;;;4.22;1.90;;;6.90;70.40;;;;;;5062578;28;20123;-68
2022/04/12 02:34:35;;;;;;;5.22;2.00;;;6.90;70.30;;;;;;5059803;28;20048;-68
2022/04/12 02:37:01;;;;;;;4.45;1.60;;;6.90;70.20;;;;;;5043657;28;20398;-67
2022/04/12 02:39:29;;;;;;;4.10;1.70;;;6.90;70.20;;;;;;5060956;28;20076;-68
2022/04/12 02:41:56;;;;;;;3.42;1.35;;;7.00;70.10;;;;;;5060348;28;20143;-68
2022/04/12 02:44:23;;;;;;;3.35;1.48;;;6.90;70.10;;;;;;5062023;28;20068;-69
2022/04/12 02:46:50;;;;;;;4.50;1.70;;;7.00;70.10;;;;;;5042671;28;20401;-69
2022/04/12 02:49:17;;;;;;;4.40;1.50;;;7.00;70.00;;;;;;5058799;28;20055;-68
2022/04/12 02:51:46;;;;;;;2.78;1.63;;;7.00;70.00;;;;;;5060936;28;20036;-68
2022/04/12 02:54:13;;;;;;;4.10;1.30;;;6.90;70.20;;;;;;5060890;28;20114;-68
2022/04/12 02:56:40;;;;;;;4.70;1.55;;;6.90;70.30;;;;;;5068228;28;20060;-68
2022/04/12 02:59:07;;;;;;;4.18;1.58;;;6.90;70.30;;;;;;5063564;28;20051;-68
2022/04/12 03:01:34;;;;;;;3.97;1.73;;;6.90;70.40;;;;;;5053274;28;20040;-68
2022/04/12 03:04:01;;;;;;;4.38;1.60;;;6.80;70.60;;;;;;5061959;28;20608;-67
2022/04/12 03:06:28;;;;;;;3.38;1.73;;;6.70;70.80;;;;;;5058613;28;20052;-68
2022/04/12 03:08:56;;;;;;;4.03;1.50;;;6.70;70.90;;;;;;5058650;28;20044;-67
2022/04/12 03:11:23;;;;;;;1.92;1.17;;;6.70;71.10;;;;;;5059926;28;20328;-68
2022/04/12 03:13:50;;;;;;;3.70;1.45;;;6.70;71.10;;;;;;5060150;28;20102;-68
2022/04/12 03:16:18;;;;;;;4.80;2.65;;;6.60;71.30;;;;;;5061652;28;20071;-68
2022/04/12 03:18:45;;;;;;;3.85;1.63;;;6.70;71.10;;;;;;5064551;28;21949;-68
2022/04/12 03:21:12;;;;;;;4.10;1.98;;;6.70;71.10;;;;;;5066391;28;20072;-68
2022/04/12 03:23:39;;;;;;;5.97;2.50;;;6.60;71.20;;;;;;5065726;28;20094;-68
2022/04/12 03:26:08;;;;;;;5.47;1.92;;;6.60;71.20;;;;;;5068810;28;20044;-67
2022/04/12 03:28:35;;;;;;;3.67;2.60;;;6.60;71.30;;;;;;5063246;28;20041;-69
2022/04/12 03:31:02;;;;;;;2.53;1.35;;;6.60;71.30;;;;;;5059821;28;20615;-69
2022/04/12 03:33:29;;;;;;;5.15;1.55;;;6.60;71.20;;;;;;5041500;28;20532;-68
2022/04/12 03:35:56;;;;;;;5.05;1.85;;;6.60;71.30;;;;;;5057366;28;20071;-68
2022/04/12 03:38:25;;;;;;;3.25;1.58;;;6.60;71.40;;;;;;5060359;28;20417;-68
2022/04/12 03:40:52;;;;;;;7.95;2.05;;;6.60;71.10;;;;;;5057948;28;20056;-69
2022/04/12 03:43:22;;;;;;;4.32;1.80;;;6.60;71.20;;;;;;5061031;28;20048;-69
2022/04/12 03:45:49;;;;;;;4.95;1.95;;;6.60;71.10;;;;;;5061655;28;20055;-68
2022/04/12 03:48:16;;;;;;;5.07;1.50;;;6.70;70.90;;;;;;5061035;28;20048;-68
2022/04/12 03:50:44;;;;;;;3.72;1.35;;;6.60;71.10;;;;;;5062227;28;20440;-69
2022/04/12 03:53:11;;;;;;;4.15;1.83;;;6.60;71.20;;;;;;5059441;28;20040;-68
2022/04/12 03:55:39;;;;;;;3.97;1.67;;;6.60;71.10;;;;;;5058683;28;20055;-69
2022/04/12 03:58:08;;;;;;;3.90;1.95;;;6.60;71.20;;;;;;5060259;28;20040;-69
2022/04/12 04:00:37;;;;;;;4.78;1.60;;;6.60;71.20;;;;;;5056992;28;20044;-69
2022/04/12 04:03:04;;;;;;;3.42;1.92;;;6.50;71.30;;;;;;5060571;28;20128;-68
2022/04/12 04:05:31;;;;;;;3.80;1.85;;;6.50;71.20;;;;;;5062739;28;20044;-68
2022/04/12 04:07:58;;;;;;;4.18;2.28;;;6.50;71.30;;;;;;5055146;28;20045;-68
2022/04/12 04:10:25;;;;;;;4.93;2.00;;;6.50;71.50;;;;;;5059500;28;20072;-68
2022/04/12 04:12:53;;;;;;;4.10;1.73;;;6.50;71.60;;;;;;5061022;28;20044;-69
2022/04/12 04:15:20;;;;;;;5.10;1.90;;;6.50;71.40;;;;;;5058320;28;20054;-68
2022/04/12 04:17:49;;;;;;;4.50;1.85;;;6.50;71.40;;;;;;5059637;28;20045;-68
2022/04/12 04:20:17;;;;;;;3.95;1.92;;;6.50;71.70;;;;;;5059807;28;20131;-67
2022/04/12 04:22:45;;;;;;;4.55;1.70;;;6.40;71.70;;;;;;5061637;28;20053;-69
2022/04/12 04:25:14;;;;;;;7.68;1.85;;;6.40;71.80;;;;;;5064461;28;20405;-67
2022/04/12 04:27:41;;;;;;;5.50;2.17;;;6.40;71.90;;;;;;5064308;28;20141;-69
2022/04/12 04:30:10;;;;;;;3.22;1.58;;;6.40;72.00;;;;;;5067642;28;20041;-69
2022/04/12 04:32:37;;;;;;;3.72;1.60;;;6.40;72.10;;;;;;5064182;28;20040;-69
2022/04/12 04:35:07;;;;;;;5.28;1.70;;;6.40;72.00;;;;;;5045330;28;20135;-69
2022/04/12 04:37:42;;;;;;;3.25;1.70;;;6.40;71.90;;;;;;5068387;28;20079;-67
2022/04/12 04:40:11;;;;;;;4.38;1.95;;;6.40;71.90;;;;;;5069389;28;20654;-67
2022/04/12 04:42:40;;;;;;;4.80;1.55;;;6.40;71.90;;;;;;5070350;28;20119;-68
2022/04/12 04:45:08;;;;;;;3.83;1.58;;;6.50;72.00;;;;;;5068237;28;20071;-68
2022/04/12 04:47:35;;;;;;;6.60;2.30;;;6.40;72.10;;;;;;5067510;28;20049;-68
2022/04/12 04:50:02;;;;;;;3.78;1.80;;;6.50;71.90;;;;;;5067816;28;20047;-68
2022/04/12 04:52:30;;;;;;;5.22;1.98;;;6.50;72.10;;;;;;5063190;28;20072;-68
2022/04/12 04:54:57;;;;;;;5.10;1.95;;;6.40;72.10;;;;;;5062137;28;20089;-69
2022/04/12 04:57:24;;;;;;;7.18;2.10;;;6.40;72.30;;;;;;5063022;28;20108;-69
2022/04/12 04:59:51;;;;;;;5.35;2.03;;;6.40;72.40;;;;;;5062055;28;20072;-69
2022/04/12 05:02:18;;;;;;;3.65;2.00;;;6.50;72.50;;;;;;5061445;28;20082;-68
2022/04/12 05:04:46;;;;;;;6.63;2.25;;;6.50;72.30;;;;;;5060938;28;20098;-68
2022/04/12 05:07:13;;;;;;;8.55;2.13;;;6.50;72.60;;;;;;5060315;28;20052;-68
2022/04/12 05:09:42;;;;;;;4.30;1.73;;;6.40;72.70;;;;;;5059926;28;20055;-68
2022/04/12 05:12:10;;;;;;;4.75;2.25;;;6.50;72.70;;;;;;5061900;28;20060;-68
2022/04/12 05:14:37;;;;;;;5.22;2.08;;;6.50;72.60;;;;;;5062125;28;20044;-69
2022/04/12 05:17:05;;;;;;;8.43;2.30;;;6.60;72.60;;;;;;5045510;28;20044;-68
2022/04/12 05:19:32;;;;;;;8.88;2.45;;;6.50;72.90;;;;;;5065548;28;20040;-68
2022/04/12 05:21:59;;;;;;;3.85;1.70;;;6.50;72.80;;;;;;5062231;28;20044;-68
2022/04/12 05:24:28;;;;;;;4.82;2.03;;;6.60;72.90;;;;;;5061554;28;20405;-67
2022/04/12 05:26:56;;;;;;;4.93;2.17;;;6.60;72.70;;;;;;5063253;28;20052;-68
2022/04/12 05:29:23;;;;;;;5.18;2.35;;;6.60;73.10;;;;;;5060938;28;20055;-68
2022/04/12 05:31:53;;;;;;;6.50;2.00;;;6.60;73.00;;;;;;5066507;28;20478;-68
2022/04/12 05:34:20;;;;;;;6.53;2.10;;;6.60;73.10;;;;;;5067825;28;20041;-68
2022/04/12 05:36:47;;;;;;;4.88;2.25;;;6.60;73.00;;;;;;5067952;28;20059;-68
2022/04/12 05:39:14;;;;;;;5.80;2.15;;;6.60;73.10;;;;;;5066814;28;20139;-69
2022/04/12 05:41:41;;;;;;;6.30;2.58;;;6.70;73.00;;;;;;5070684;28;20052;-69
2022/04/12 05:44:10;;;;;;;8.93;3.05;;;6.70;73.10;;;;;;5069488;28;20037;-69
2022/04/12 05:46:38;;;;;;;5.35;2.28;;;6.70;73.00;;;;;;5064481;28;21592;-68
2022/04/12 05:49:05;;;;;;;5.13;2.42;;;6.80;72.80;;;;;;5064222;28;20494;-69
2022/04/12 05:51:32;;;;;;;7.15;2.83;;;6.80;72.80;;;;;;5061718;28;20040;-69
2022/04/12 05:53:59;;;;;;;5.20;2.35;;;6.90;72.80;;;;;;5039172;28;20044;-68
2022/04/12 05:56:26;;;;;;;5.75;2.22;;;6.90;72.90;;;;;;5064101;28;20049;-69
2022/04/12 05:58:53;;;;;;;4.22;2.40;;;7.00;72.70;;;;;;5062201;28;20045;-68
2022/04/12 06:01:22;;;;;;;5.32;2.30;;;7.00;72.70;;;;;;5063279;28;20055;-68
2022/04/12 06:03:49;;;;;;;4.20;2.00;;;7.10;72.70;;;;;;5063906;28;20049;-68
2022/04/12 06:06:16;;;;;;;6.30;2.22;;;7.10;72.60;;;;;;5064050;28;20068;-69
2022/04/12 06:08:43;;;;;;;5.15;2.00;;;7.10;72.70;;;;;;5064483;28;20056;-69
2022/04/12 06:11:10;;;;;;;5.18;2.47;;;7.20;72.80;;;;;;5069814;28;20508;-68
2022/04/12 06:13:37;;;;;;;4.20;1.60;;;7.20;72.60;;;;;;5069595;28;20076;-69
2022/04/12 06:16:05;;;;;;;4.13;2.00;;;7.20;72.30;;;;;;5064823;28;20056;-69
2022/04/12 06:18:33;;;;;;;3.55;1.52;;;7.30;72.30;;;;;;5067592;28;20123;-69
2022/04/12 06:21:01;;;;;;;3.67;1.88;;;7.30;72.30;;;;;;5066521;28;20049;-69
2022/04/12 06:23:29;;;;;;;7.32;2.17;;;7.30;72.00;;;;;;5065477;28;20040;-68
2022/04/12 06:25:56;;;;;;;4.82;1.95;;;7.40;71.90;;;;;;5067867;28;20044;-67
2022/04/12 06:28:23;;;;;;;4.07;1.75;;;7.40;71.90;;;;;;5061893;28;20098;-67
2022/04/12 06:30:51;;;;;;;5.35;2.08;;;7.40;71.70;;;;;;5062216;28;22037;-67
2022/04/12 06:33:18;;;;;;;4.10;1.65;;;7.60;71.60;;;;;;5059930;28;20096;-68
2022/04/12 06:35:46;;;;;;;8.38;2.42;;;7.60;71.40;;;;;;5062489;28;20117;-67
2022/04/12 06:38:13;;;;;;;5.80;2.10;;;7.70;71.20;;;;;;5041500;28;20048;-68
2022/04/12 06:40:41;;;;;;;4.47;2.17;;;7.80;70.80;;;;;;5061382;28;20068;-67
2022/04/12 06:43:08;;;;;;;8.13;2.95;;;7.90;70.70;;;;;;5060743;28;20041;-67
2022/04/12 06:45:35;;;;;;;4.55;2.05;;;8.00;70.70;;;;;;5059123;28;20115;-69
2022/04/12 06:48:02;;;;;;;6.18;2.10;;;8.10;70.70;;;;;;5064489;28;20048;-69
2022/04/12 06:50:30;;;;;;;5.82;2.10;;;8.20;70.10;;;;;;5062812;28;20066;-68
2022/04/12 06:52:59;;;;;;;8.13;2.65;;;8.40;69.90;;;;;;5065846;28;20049;-68
2022/04/12 06:55:27;;;;;;;6.25;2.58;;;8.50;69.40;;;;;;5069157;28;20072;-69
2022/04/12 06:57:54;;;;;;;5.40;1.75;;;8.60;69.50;;;;;;5067090;28;20121;-69
2022/04/12 07:00:21;;;;;;;5.15;2.00;;;8.70;69.10;;;;;;5064236;28;20044;-70
2022/04/12 07:02:48;;;;;;;6.60;2.05;;;8.80;69.60;;;;;;5064984;28;20506;-68
2022/04/12 07:05:16;;;;;;;7.57;2.60;;;8.90;68.20;;;;;;5063403;28;20055;-68
2022/04/12 07:07:44;;;;;;;5.60;2.08;;;9.10;67.60;;;;;;5062167;28;20102;-70
2022/04/12 07:10:14;;;;;;;5.78;2.40;;;9.20;67.20;;;;;;5061559;28;20053;-68
2022/04/12 07:12:42;;;;;;;7.93;2.90;;;9.30;67.40;;;;;;5061738;28;20124;-68
2022/04/12 07:15:10;;;;;;;7.15;3.10;;;9.40;66.10;;;;;;5039132;28;20143;-68
2022/04/12 07:17:37;;;;;;;5.97;2.22;;;9.60;65.50;;;;;;5061725;28;20036;-68
2022/04/12 07:20:05;;;;;;;4.88;2.17;;;9.70;65.80;;;;;;5061338;28;20040;-69
2022/04/12 07:22:33;;;;;;;4.55;2.17;;;9.80;65.80;;;;;;5061793;28;20512;-68
2022/04/12 07:25:00;;;;;;;5.35;2.22;;;9.90;65.10;;;;;;5062290;28;20050;-70
2022/04/12 07:27:28;;;;;;;4.78;1.98;;;10.00;65.00;;;;;;5059858;28;20049;-70
2022/04/12 07:29:56;;;;;;;6.25;3.30;;;10.10;64.60;;;;;;5060508;28;20036;-68
2022/04/12 07:32:23;;;;;;;5.00;2.20;;;10.20;64.70;;;;;;5063285;28;20498;-69
2022/04/12 07:34:50;;;;;;;7.07;2.55;;;10.30;64.10;;;;;;5059691;28;20516;-69
2022/04/12 07:37:17;;;;;;;5.70;2.17;;;10.40;63.90;;;;;;5064224;28;20595;-70
2022/04/12 07:39:44;;;;;;;4.90;2.10;;;10.50;64.10;;;;;;5058216;28;21325;-68
2022/04/12 07:42:11;;;;;;;5.97;2.10;;;10.60;63.80;;;;;;5062207;28;20079;-68
2022/04/12 07:44:39;;;;;;;5.13;2.00;;;10.60;63.40;;;;;;5067942;28;20040;-69
2022/04/12 07:47:07;;;;;;;7.72;2.60;;;10.70;63.30;;;;;;5067550;28;20123;-68
2022/04/12 07:49:34;;;;;;;6.63;2.67;;;10.90;62.90;;;;;;5067847;28;20059;-69
2022/04/12 07:52:01;;;;;;;6.50;2.83;;;11.00;62.80;;;;;;5069517;28;20054;-70
2022/04/12 07:54:27;;;;;;;9.68;3.55;;;11.10;62.80;;;;;;5066451;28;20155;-68
2022/04/12 07:56:54;;;;;;;7.38;2.90;;;11.20;62.00;;;;;;5065687;28;20048;-69
2022/04/12 07:59:21;;;;;;;7.60;3.28;;;11.30;61.90;;;;;;5062087;28;20134;-69
2022/04/12 08:01:50;;;;;;;11.80;3.42;;;11.40;61.90;;;;;;5055683;28;20583;-69
2022/04/12 08:04:17;;;;;;;8.32;3.03;;;11.50;61.70;;;;;;5056818;28;20275;-69
2022/04/12 08:06:44;;;;;;;10.95;2.88;;;11.60;61.10;;;;;;5066214;28;20044;-70
2022/04/12 08:09:10;;;;;;;6.15;2.88;;;11.80;60.40;;;;;;5069879;28;20072;-70
2022/04/12 08:11:37;;;;;;;6.15;2.60;;;11.80;61.00;;;;;;5067841;28;20041;-69
2022/04/12 08:14:05;;;;;;;7.88;3.53;;;11.90;60.40;;;;;;5042665;28;20406;-68
2022/04/12 08:16:31;;;;;;;7.30;2.40;;;12.00;60.70;;;;;;5060108;28;20059;-69
2022/04/12 08:19:00;;;;;;;5.95;2.50;;;12.20;60.60;;;;;;5061709;28;20069;-70
2022/04/12 08:21:34;;;;;;;5.82;2.67;;;12.20;60.50;;;;;;5064237;28;20050;-71
2022/04/12 08:24:04;;;;;;;5.47;2.15;;;12.30;60.20;;;;;;5060757;28;20061;-70
2022/04/12 08:26:34;;;;;;;7.57;2.65;;;12.50;60.30;;;;;;5060092;28;20490;-70
2022/04/12 08:29:01;;;;;;;6.18;2.35;;;12.60;58.40;;;;;;5060217;28;20115;-70
2022/04/12 08:31:28;;;;;;;5.40;2.28;;;12.60;59.30;;;;;;5033215;28;20057;-69
2022/04/12 08:33:55;;;;;;;4.32;1.55;;;12.70;59.00;;;;;;5055046;28;20049;-69
2022/04/12 08:36:25;;;;;;;6.38;1.83;;;12.80;58.00;;;;;;5060878;28;20065;-70
2022/04/12 08:38:52;;;;;;;4.53;2.07;;;12.90;58.70;;;;;;5059267;28;20045;-69
2022/04/12 08:41:23;;;;;;;5.53;1.83;;;12.90;58.50;;;;;;5060309;28;20080;-70
2022/04/12 08:43:54;;;;;;;4.07;1.60;;;13.10;58.50;;;;;;5064241;28;20124;-69
2022/04/12 08:46:24;;;;;;;6.72;2.35;;;13.10;58.40;;;;;;5065326;28;20067;-69
2022/04/12 08:48:53;;;;;;;5.65;2.00;;;13.20;58.20;;;;;;5065884;28;20132;-70
2022/04/12 08:51:20;;;;;;;5.82;2.58;;;13.30;57.80;;;;;;5066597;28;20406;-69
2022/04/12 08:53:48;;;;;;;9.00;3.08;;;13.40;58.60;;;;;;5039437;28;20405;-69
2022/04/12 08:56:16;;;;;;;8.27;2.95;;;13.50;58.40;;;;;;5060192;28;20042;-70
2022/04/12 08:58:43;;;;;;;9.40;3.78;;;13.60;58.10;;;;;;5060162;28;20039;-67
2022/04/12 09:01:11;;;;;;;7.65;2.90;;;13.70;58.10;;;;;;5056714;28;20506;-70
2022/04/12 09:03:38;;;;;;;9.63;3.42;;;13.70;57.70;;;;;;5064080;28;20415;-69
2022/04/12 09:06:05;;;;;;;7.35;2.95;;;13.80;56.80;;;;;;5060801;28;20059;-69
2022/04/12 09:08:33;;;;;;;7.85;2.95;;;13.90;57.00;;;;;;5060886;28;20071;-69
2022/04/12 09:11:03;;;;;;;8.65;3.75;;;14.00;56.50;;;;;;5065716;28;20131;-70
2022/04/12 09:13:31;;;;;;;8.23;3.60;;;14.00;56.40;;;;;;5062887;28;20494;-69
2022/04/12 09:15:58;;;;;;;11.88;3.67;;;14.10;56.20;;;;;;5063385;28;20702;-70
2022/04/12 09:18:37;;;;;;;10.20;3.90;;;14.10;55.40;;;;;;5062692;28;20055;-70
2022/04/12 09:21:15;;;;;;;7.43;3.33;;;14.20;55.00;;;;;;5066060;28;20040;-70
2022/04/12 09:23:43;;;;;;;8.75;3.75;;;14.20;54.60;;;;;;5062269;28;20040;-69
2022/04/12 09:26:16;;;;;;;13.85;5.72;;;14.30;55.60;;;;;;5064117;28;20054;-69
2022/04/12 09:28:44;;;;;;;8.95;4.18;;;14.40;55.10;;;;;;5060484;28;20642;-69
2022/04/12 09:31:15;;;;;;;11.63;4.43;;;14.40;55.20;;;;;;5063122;28;20071;-69
2022/04/12 09:33:43;;;;;;;7.95;3.25;;;14.50;54.40;;;;;;5062768;28;20436;-70
2022/04/12 09:36:11;;;;;;;8.98;3.20;;;14.60;54.00;;;;;;5066241;28;20051;-69
2022/04/12 09:38:39;;;;;;;8.20;3.67;;;14.60;53.80;;;;;;5065684;28;20053;-70
2022/04/12 09:41:20;;;;;;;9.13;3.65;;;14.60;54.80;;;;;;5066921;28;20479;-70
2022/04/12 09:43:53;;;;;;;;;;;14.70;53.90;;;;;;5066520;28;20128;-70
2022/04/12 09:46:20;;;;;;;7.68;3.25;;;14.70;53.50;;;;;;5067073;28;19924;-70
2022/04/12 09:48:49;;;;;;;6.50;3.40;;;14.90;53.40;;;;;;5060652;28;20060;-68
2022/04/12 09:51:16;;;;;;;7.07;2.72;;;14.90;52.40;;;;;;5060588;28;20634;-69
2022/04/12 09:53:46;;;;;;;7.97;3.03;;;15.00;52.00;;;;;;5060656;28;20046;-70
2022/04/12 09:56:19;;;;;;;9.10;3.22;;;15.00;52.20;;;;;;5059528;28;20048;-70
2022/04/12 09:58:48;;;;;;;10.60;4.15;;;15.10;52.30;;;;;;5059418;28;20041;-70
2022/04/12 10:01:16;;;;;;;8.00;3.25;;;15.10;52.30;;;;;;5055815;28;20048;-69
2022/04/12 10:03:49;;;;;;;6.90;2.50;;;15.10;52.60;;;;;;5058684;28;20051;-69
2022/04/12 10:06:20;;;;;;;4.78;1.65;;;15.20;51.40;;;;;;5061107;28;20113;-69
2022/04/12 10:08:52;;;;;;;10.98;2.58;;;15.20;51.00;;;;;;5042398;28;20402;-68
2022/04/12 10:11:21;;;;;;;7.38;2.58;;;15.30;51.40;;;;;;5060411;28;20041;-69
2022/04/12 10:13:49;;;;;;;5.35;2.15;;;15.30;51.00;;;;;;5061903;28;20071;-69
2022/04/12 10:16:17;;;;;;;4.63;1.83;;;15.30;51.10;;;;;;5062735;28;20048;-69
2022/04/12 10:18:45;;;;;;;4.93;1.75;;;15.40;50.90;;;;;;5061786;28;20067;-70
2022/04/12 10:21:13;;;;;;;6.15;2.58;;;15.40;51.00;;;;;;5063064;28;20728;-69
2022/04/12 10:23:43;;;;;;;6.18;2.08;;;15.50;50.70;;;;;;5062714;28;20119;-69
2022/04/12 10:26:12;;;;;;;9.27;1.88;;;15.60;51.00;;;;;;5062367;28;20068;-69
2022/04/12 10:28:41;;;;;;;4.32;1.67;;;15.60;49.90;;;;;;5070059;28;20072;-70
2022/04/12 10:31:24;;;;;;;5.28;1.38;;;15.70;50.40;;;;;;5064893;28;23196;-71
2022/04/12 10:34:04;;;;;;;2.75;1.25;;;15.70;49.80;;;;;;5067090;28;20055;-71
2022/04/12 10:37:11;;;;;;;6.82;2.20;;;15.70;49.80;;;;;;5067707;28;20049;-70
2022/04/12 10:39:45;;;;;;;5.28;1.50;;;15.80;49.90;;;;;;5060155;28;20063;-71
2022/04/12 10:42:14;;;;;;;3.45;1.60;;;15.80;49.30;;;;;;5062504;28;20041;-69
2022/04/12 10:44:45;;;;;;;7.75;2.92;;;15.90;49.20;;;;;;5062838;28;20040;-71
2022/04/12 10:47:27;;;;;;;7.30;2.97;;;15.90;50.10;;;;;;5061238;28;20072;-69
2022/04/12 10:49:59;;;;;;;6.13;3.17;;;16.00;50.30;;;;;;5061051;28;20036;-69
2022/04/12 10:52:38;;;;;;;6.70;2.65;;;16.10;49.00;;;;;;5062409;28;20120;-69
2022/04/12 10:55:08;;;;;;;8.65;2.80;;;16.10;49.30;;;;;;5060969;28;20044;-70
2022/04/12 10:57:35;;;;;;;5.57;2.20;;;16.20;48.70;;;;;;5062502;28;20036;-70
2022/04/12 11:00:11;;;;;;;4.22;1.70;;;16.30;49.00;;;;;;5067709;28;20490;-70
2022/04/12 11:02:41;;;;;;;4.57;1.65;;;16.30;48.00;;;;;;5067020;28;20043;-68
2022/04/12 11:05:28;;;;;;;5.35;2.40;;;16.30;47.90;;;;;;5066302;28;20047;-70
2022/04/12 11:07:55;;;;;;;4.95;1.63;;;16.30;48.20;;;;;;5059477;28;20155;-70
2022/04/12 11:10:24;;;;;;;5.68;1.90;;;16.30;47.10;;;;;;5066401;28;20052;-71
2022/04/12 11:13:04;;;;;;;3.78;1.40;;;16.30;47.40;;;;;;5065969;28;20044;-71
2022/04/12 11:15:34;;;;;;;3.88;1.55;;;16.40;47.40;;;;;;5058849;28;20051;-69
2022/04/12 11:18:12;;;;;;;2.35;1.05;;;16.40;46.80;;;;;;5060879;28;20453;-70
2022/04/12 11:20:41;;;;;;;2.03;0.95;;;16.40;47.30;;;;;;5058581;28;20148;-69
2022/04/12 11:23:09;;;;;;;3.10;1.02;;;16.40;46.70;;;;;;5060150;28;20072;-70
2022/04/12 11:25:47;;;;;;;4.70;1.05;;;16.50;46.50;;;;;;5058221;28;20123;-69
2022/04/12 11:28:15;;;;;;;5.75;1.35;;;16.50;46.50;;;;;;5059842;28;20136;-69
2022/04/12 11:30:54;;;;;;;4.47;1.30;;;16.50;46.40;;;;;;5064028;28;20033;-69
2022/04/12 11:33:24;;;;;;;2.45;1.17;;;16.50;46.40;;;;;;5069170;28;20047;-69
2022/04/12 11:35:51;;;;;;;;;;;16.50;46.30;;;;;;5068678;28;20086;-70
2022/04/12 11:38:20;;;;;;;2.70;1.13;;;16.50;46.40;;;;;;5070584;28;19935;-69
2022/04/12 11:40:47;;;;;;;2.70;1.08;;;16.50;46.60;;;;;;5065556;28;20068;-69
2022/04/12 11:43:24;;;;;;;3.22;1.45;;;16.50;46.50;;;;;;5069019;28;20127;-70
2022/04/12 11:45:58;;;;;;;4.88;1.58;;;16.50;46.50;;;;;;5067858;28;20815;-70
2022/04/12 11:48:28;;;;;;;3.10;1.08;;;16.50;46.40;;;;;;5066870;28;20075;-70
2022/04/12 11:50:56;;;;;;;4.10;1.23;;;16.50;46.60;;;;;;5067416;28;20163;-69
2022/04/12 11:53:24;;;;;;;4.18;1.58;;;16.50;46.50;;;;;;5066339;28;20043;-69
2022/04/12 11:55:51;;;;;;;5.82;1.92;;;16.40;46.70;;;;;;5050841;28;20075;-69
2022/04/12 11:58:21;;;;;;;4.38;1.35;;;16.50;46.60;;;;;;5067180;28;20044;-70
2022/04/12 12:00:49;;;;;;;3.42;1.42;;;16.50;46.40;;;;;;5064321;28;20072;-70
2022/04/12 12:03:19;;;;;;;3.83;1.60;;;16.50;46.30;;;;;;5067470;28;20051;-69
2022/04/12 12:05:46;;;;;;;4.40;1.57;;;16.60;45.80;;;;;;5069219;28;20044;-70
2022/04/12 12:08:20;;;;;;;3.13;1.23;;;16.60;46.00;;;;;;5070207;28;20466;-69
2022/04/12 12:10:47;;;;;;;6.60;2.10;;;16.60;46.20;;;;;;5068882;28;20052;-70
2022/04/12 12:13:14;;;;;;;4.50;1.75;;;16.60;46.10;;;;;;5067981;28;20071;-70
2022/04/12 12:15:41;;;;;;;3.35;1.65;;;16.60;46.20;;;;;;5065326;28;20049;-70
2022/04/12 12:18:08;;;;;;;4.25;1.60;;;16.60;46.30;;;;;;5068978;28;20432;-70
2022/04/12 12:20:39;;;;;;;3.95;1.60;;;16.60;46.00;;;;;;5068593;28;20040;-69
2022/04/12 12:23:07;;;;;;;4.60;1.80;;;16.70;46.20;;;;;;5066602;28;20036;-69
2022/04/12 12:25:40;;;;;;;3.78;1.20;;;16.70;45.90;;;;;;5068740;28;20040;-69
2022/04/12 12:28:12;;;;;;;3.83;1.30;;;16.70;45.20;;;;;;5064951;28;20045;-70
2022/04/12 12:30:40;;;;;;;4.13;1.35;;;16.70;45.60;;;;;;5068540;28;20049;-69
2022/04/12 12:33:07;;;;;;;3.88;1.63;;;16.60;45.80;;;;;;5070712;28;20072;-69
2022/04/12 12:35:37;;;;;;;4.00;1.38;;;16.60;45.90;;;;;;5067578;28;20141;-69
2022/04/12 12:38:10;;;;;;;3.40;1.23;;;16.60;45.80;;;;;;5062848;28;20056;-70
2022/04/12 12:40:38;;;;;;;3.10;1.13;;;16.70;45.80;;;;;;5066099;28;20045;-70
2022/04/12 12:43:07;;;;;;;3.50;1.38;;;16.60;46.10;;;;;;5050744;28;20044;-70
2022/04/12 12:45:37;;;;;;;3.92;1.48;;;16.60;46.10;;;;;;5072014;28;20112;-70
2022/04/12 12:48:08;;;;;;;4.55;1.63;;;16.60;46.20;;;;;;5073804;28;20045;-69
2022/04/12 12:50:38;;;;;;;4.57;1.75;;;16.60;46.30;;;;;;5072292;28;20783;-70
2022/04/12 12:53:09;;;;;;;5.57;2.78;;;16.60;46.30;;;;;;5074014;28;20052;-70
2022/04/12 12:55:39;;;;;;;8.77;4.05;;;16.60;46.30;;;;;;5072270;28;20512;-69
2022/04/12 12:58:08;;;;;;;4.85;2.35;;;16.70;46.60;;;;;;5069781;28;20032;-69
2022/04/12 13:00:36;;;;;;;4.28;2.10;;;16.70;45.50;;;;;;5067424;28;20103;-69